KOAK/OAK METAR and TAF weather

Enter ICAO airport designator
Station Type Date Time Source
KOAK METAR 2020/04/05 13:10 UTC NOAA

KOAK 051310Z 14016KT 10SM -RA FEW017 BKN028 OVC037 13/10 A2963 RMK AO2 RAB08 P0000 T01280100


Station Type Date Time Source
KOAK Decoded METAR 2020/04/05 13:10 UTC NOAA

METRO OAKLAND INTERNATIONAL AIRPORT , CA, United States (KOAK) 37-43N 122-14W 26M
Apr 05, 2020 - 09:10 AM EDT / 2020.04.05 1310 UTC
Wind: from the SE (140 degrees) at 18 MPH (16 KT):0
Visibility: 10 mile(s):0
Sky conditions: overcast
Weather: light rain
Precipitation last hour: A trace
Temperature: 55.0 F (12.8 C)
Dew Point: 50.0 F (10.0 C)
Relative Humidity: 83%
Pressure (altimeter): 29.63 in. Hg (1003 hPa)
ob: KOAK 051310Z 14016KT 10SM -RA FEW017 BKN028 OVC037 13/10 A2963 RMK AO2 RAB08 P0000 T01280100
cycle: 13

Station Type Date Time Source
KOAK TAF 2020/04/05 12:24 UTC NOAA

TAF KOAK 051122Z 0512/0618 19018G25KT P6SM -SHRA OVC035
FM051300 16025G35KT 5SM SHRA BR BKN025 OVC030
FM051700 22020G28KT 3SM RA VCTS OVC015CB
FM052100 25013KT 5SM -SHRA VCTS OVC025CB
FM060100 26007KT P6SM VCSH BKN025
FM061000 34005KT P6SM SCT025

Example: see airport list